sensor_id;sensor_type;location;lat;lon;timestamp;temperature;humidity
14527;DHT22;7350;51.208;4.238;2022-12-05T00:01:19;3.90;99.90
14527;DHT22;7350;51.208;4.238;2022-12-05T00:03:46;4.00;99.90
14527;DHT22;7350;51.208;4.238;2022-12-05T00:06:13;4.00;99.90
14527;DHT22;7350;51.208;4.238;2022-12-05T00:08:41;4.20;99.90
14527;DHT22;7350;51.208;4.238;2022-12-05T00:11:11;4.20;99.90
14527;DHT22;7350;51.208;4.238;2022-12-05T00:13:39;4.10;99.90
14527;DHT22;7350;51.208;4.238;2022-12-05T00:16:08;4.00;99.90
14527;DHT22;7350;51.208;4.238;2022-12-05T00:18:37;4.00;99.90
14527;DHT22;7350;51.208;4.238;2022-12-05T00:21:04;4.20;99.90
14527;DHT22;7350;51.208;4.238;2022-12-05T00:23:32;4.30;99.90
14527;DHT22;7350;51.208;4.238;2022-12-05T00:26:01;4.30;99.90
14527;DHT22;7350;51.208;4.238;2022-12-05T00:28:29;4.10;99.90
14527;DHT22;7350;51.208;4.238;2022-12-05T00:30:59;4.10;99.90
14527;DHT22;7350;51.208;4.238;2022-12-05T00:33:27;4.20;99.90
14527;DHT22;7350;51.208;4.238;2022-12-05T00:35:59;4.30;99.90
14527;DHT22;7350;51.208;4.238;2022-12-05T00:38:27;4.10;99.90
14527;DHT22;7350;51.208;4.238;2022-12-05T00:40:54;4.00;99.90
14527;DHT22;7350;51.208;4.238;2022-12-05T00:43:21;4.10;99.90
14527;DHT22;7350;51.208;4.238;2022-12-05T00:45:47;4.20;99.90
14527;DHT22;7350;51.208;4.238;2022-12-05T00:48:14;4.00;99.90
14527;DHT22;7350;51.208;4.238;2022-12-05T00:50:41;4.10;99.90
14527;DHT22;7350;51.208;4.238;2022-12-05T00:53:10;4.30;99.90
14527;DHT22;7350;51.208;4.238;2022-12-05T00:55:37;4.30;99.90
14527;DHT22;7350;51.208;4.238;2022-12-05T00:58:05;4.30;99.90
14527;DHT22;7350;51.208;4.238;2022-12-05T01:00:32;4.40;99.90
14527;DHT22;7350;51.208;4.238;2022-12-05T01:02:59;4.30;99.90
14527;DHT22;7350;51.208;4.238;2022-12-05T01:05:26;4.30;99.90
14527;DHT22;7350;51.208;4.238;2022-12-05T01:07:53;4.10;99.90
14527;DHT22;7350;51.208;4.238;2022-12-05T01:10:21;4.10;99.90
14527;DHT22;7350;51.208;4.238;2022-12-05T01:12:48;3.90;99.90
14527;DHT22;7350;51.208;4.238;2022-12-05T01:15:15;3.90;99.90
14527;DHT22;7350;51.208;4.238;2022-12-05T01:17:42;4.00;99.90
14527;DHT22;7350;51.208;4.238;2022-12-05T01:20:10;4.10;99.90
14527;DHT22;7350;51.208;4.238;2022-12-05T01:22:37;4.40;99.90
14527;DHT22;7350;51.208;4.238;2022-12-05T01:25:04;4.50;99.90
14527;DHT22;7350;51.208;4.238;2022-12-05T01:27:33;4.40;99.90
14527;DHT22;7350;51.208;4.238;2022-12-05T01:30:00;4.40;99.90
14527;DHT22;7350;51.208;4.238;2022-12-05T01:32:27;4.60;99.90
14527;DHT22;7350;51.208;4.238;2022-12-05T01:34:55;4.30;99.90
14527;DHT22;7350;51.208;4.238;2022-12-05T01:37:22;4.30;99.90
14527;DHT22;7350;51.208;4.238;2022-12-05T01:39:49;4.30;99.90
14527;DHT22;7350;51.208;4.238;2022-12-05T01:42:16;4.40;99.90
14527;DHT22;7350;51.208;4.238;2022-12-05T01:45:06;4.20;99.90
14527;DHT22;7350;51.208;4.238;2022-12-05T01:47:35;4.20;99.90
14527;DHT22;7350;51.208;4.238;2022-12-05T01:50:03;4.20;99.90
14527;DHT22;7350;51.208;4.238;2022-12-05T01:52:31;4.30;99.90
14527;DHT22;7350;51.208;4.238;2022-12-05T01:55:02;4.30;99.90
14527;DHT22;7350;51.208;4.238;2022-12-05T01:57:30;4.20;99.90
14527;DHT22;7350;51.208;4.238;2022-12-05T02:00:01;4.30;99.90
14527;DHT22;7350;51.208;4.238;2022-12-05T02:02:30;4.30;99.90
14527;DHT22;7350;51.208;4.238;2022-12-05T02:05:01;4.20;99.90
14527;DHT22;7350;51.208;4.238;2022-12-05T02:07:30;4.10;99.90
14527;DHT22;7350;51.208;4.238;2022-12-05T02:09:57;4.20;99.90
14527;DHT22;7350;51.208;4.238;2022-12-05T02:12:24;4.40;99.90
14527;DHT22;7350;51.208;4.238;2022-12-05T02:15:07;4.30;99.90
14527;DHT22;7350;51.208;4.238;2022-12-05T02:17:45;4.30;99.90
14527;DHT22;7350;51.208;4.238;2022-12-05T02:20:35;4.30;99.90
14527;DHT22;7350;51.208;4.238;2022-12-05T02:23:26;4.30;99.90
14527;DHT22;7350;51.208;4.238;2022-12-05T02:26:27;4.20;99.90
14527;DHT22;7350;51.208;4.238;2022-12-05T02:32:01;4.20;99.90
14527;DHT22;7350;51.208;4.238;2022-12-05T02:34:34;4.20;99.90
14527;DHT22;7350;51.208;4.238;2022-12-05T02:37:08;4.40;99.90
14527;DHT22;7350;51.208;4.238;2022-12-05T02:39:42;4.40;99.90
14527;DHT22;7350;51.208;4.238;2022-12-05T02:42:14;4.40;99.90
14527;DHT22;7350;51.208;4.238;2022-12-05T02:44:44;4.40;99.90
14527;DHT22;7350;51.208;4.238;2022-12-05T02:47:18;4.30;99.90
14527;DHT22;7350;51.208;4.238;2022-12-05T02:49:47;4.20;99.90
14527;DHT22;7350;51.208;4.238;2022-12-05T02:52:16;4.00;99.90
14527;DHT22;7350;51.208;4.238;2022-12-05T02:54:45;4.20;99.90
14527;DHT22;7350;51.208;4.238;2022-12-05T02:57:14;4.30;99.90
14527;DHT22;7350;51.208;4.238;2022-12-05T02:59:42;4.30;99.90
14527;DHT22;7350;51.208;4.238;2022-12-05T03:02:22;4.30;99.90
14527;DHT22;7350;51.208;4.238;2022-12-05T03:04:50;4.30;99.90
14527;DHT22;7350;51.208;4.238;2022-12-05T03:07:19;4.40;99.90
14527;DHT22;7350;51.208;4.238;2022-12-05T03:09:51;4.20;99.90
14527;DHT22;7350;51.208;4.238;2022-12-05T03:12:23;4.20;99.90
14527;DHT22;7350;51.208;4.238;2022-12-05T03:14:54;4.20;99.90
14527;DHT22;7350;51.208;4.238;2022-12-05T03:17:26;4.20;99.90
14527;DHT22;7350;51.208;4.238;2022-12-05T03:19:58;4.10;99.90
14527;DHT22;7350;51.208;4.238;2022-12-05T03:22:31;4.30;99.90
14527;DHT22;7350;51.208;4.238;2022-12-05T03:24:59;4.20;99.90
14527;DHT22;7350;51.208;4.238;2022-12-05T03:27:29;4.20;99.90
14527;DHT22;7350;51.208;4.238;2022-12-05T03:30:03;4.30;99.90
14527;DHT22;7350;51.208;4.238;2022-12-05T03:32:36;4.30;99.90
14527;DHT22;7350;51.208;4.238;2022-12-05T03:35:10;4.50;99.90
14527;DHT22;7350;51.208;4.238;2022-12-05T03:37:44;4.40;99.90
14527;DHT22;7350;51.208;4.238;2022-12-05T03:40:21;4.50;99.90
14527;DHT22;7350;51.208;4.238;2022-12-05T03:42:52;4.50;99.90
14527;DHT22;7350;51.208;4.238;2022-12-05T03:45:24;4.60;99.90
14527;DHT22;7350;51.208;4.238;2022-12-05T03:47:59;4.50;99.90
14527;DHT22;7350;51.208;4.238;2022-12-05T03:50:31;4.50;99.90
14527;DHT22;7350;51.208;4.238;2022-12-05T03:53:04;4.50;99.90
14527;DHT22;7350;51.208;4.238;2022-12-05T03:55:34;4.50;99.90
14527;DHT22;7350;51.208;4.238;2022-12-05T03:58:06;4.60;99.90
14527;DHT22;7350;51.208;4.238;2022-12-05T04:00:38;4.60;99.90
14527;DHT22;7350;51.208;4.238;2022-12-05T04:03:09;4.30;99.90
14527;DHT22;7350;51.208;4.238;2022-12-05T04:05:41;4.20;99.90
14527;DHT22;7350;51.208;4.238;2022-12-05T04:08:13;4.00;99.90
14527;DHT22;7350;51.208;4.238;2022-12-05T04:10:46;4.20;99.90
14527;DHT22;7350;51.208;4.238;2022-12-05T04:13:17;4.30;99.90
14527;DHT22;7350;51.208;4.238;2022-12-05T04:15:48;4.30;99.90
14527;DHT22;7350;51.208;4.238;2022-12-05T04:18:36;4.40;99.90
14527;DHT22;7350;51.208;4.238;2022-12-05T04:21:06;4.30;99.90
14527;DHT22;7350;51.208;4.238;2022-12-05T04:23:51;4.20;99.90
14527;DHT22;7350;51.208;4.238;2022-12-05T04:26:33;4.20;99.90
14527;DHT22;7350;51.208;4.238;2022-12-05T04:29:06;4.30;99.90
14527;DHT22;7350;51.208;4.238;2022-12-05T04:31:38;4.40;99.90
14527;DHT22;7350;51.208;4.238;2022-12-05T04:34:12;4.20;99.90
14527;DHT22;7350;51.208;4.238;2022-12-05T04:36:42;4.20;99.90
14527;DHT22;7350;51.208;4.238;2022-12-05T04:39:15;4.50;99.90
14527;DHT22;7350;51.208;4.238;2022-12-05T04:41:47;4.30;99.90
14527;DHT22;7350;51.208;4.238;2022-12-05T04:44:18;4.10;99.90
14527;DHT22;7350;51.208;4.238;2022-12-05T04:46:47;4.00;99.90
14527;DHT22;7350;51.208;4.238;2022-12-05T04:49:19;4.00;99.90
14527;DHT22;7350;51.208;4.238;2022-12-05T04:51:49;3.90;99.90
14527;DHT22;7350;51.208;4.238;2022-12-05T04:54:26;3.90;99.90
14527;DHT22;7350;51.208;4.238;2022-12-05T04:57:01;4.00;99.90
14527;DHT22;7350;51.208;4.238;2022-12-05T04:59:30;3.90;99.90
14527;DHT22;7350;51.208;4.238;2022-12-05T05:02:01;4.00;99.90
14527;DHT22;7350;51.208;4.238;2022-12-05T05:04:33;4.20;99.90
14527;DHT22;7350;51.208;4.238;2022-12-05T05:07:05;4.00;99.90
14527;DHT22;7350;51.208;4.238;2022-12-05T05:09:32;4.10;99.90
14527;DHT22;7350;51.208;4.238;2022-12-05T05:12:00;3.90;99.90
14527;DHT22;7350;51.208;4.238;2022-12-05T05:14:27;4.10;99.90
14527;DHT22;7350;51.208;4.238;2022-12-05T05:16:54;3.90;99.90
14527;DHT22;7350;51.208;4.238;2022-12-05T05:19:21;4.00;99.90
14527;DHT22;7350;51.208;4.238;2022-12-05T05:21:50;4.00;99.90
14527;DHT22;7350;51.208;4.238;2022-12-05T05:24:18;3.80;99.90
14527;DHT22;7350;51.208;4.238;2022-12-05T05:26:47;3.70;99.90
14527;DHT22;7350;51.208;4.238;2022-12-05T05:29:14;3.80;99.90
14527;DHT22;7350;51.208;4.238;2022-12-05T05:31:42;4.10;99.90
14527;DHT22;7350;51.208;4.238;2022-12-05T05:34:10;4.10;99.90
14527;DHT22;7350;51.208;4.238;2022-12-05T05:36:40;4.20;99.90
14527;DHT22;7350;51.208;4.238;2022-12-05T05:39:12;4.00;99.90
14527;DHT22;7350;51.208;4.238;2022-12-05T05:41:40;4.10;99.90
14527;DHT22;7350;51.208;4.238;2022-12-05T05:44:07;4.40;99.90
14527;DHT22;7350;51.208;4.238;2022-12-05T05:46:34;4.40;99.90
14527;DHT22;7350;51.208;4.238;2022-12-05T05:49:02;4.30;99.90
14527;DHT22;7350;51.208;4.238;2022-12-05T05:51:29;4.40;99.90
14527;DHT22;7350;51.208;4.238;2022-12-05T05:53:57;4.20;99.90
14527;DHT22;7350;51.208;4.238;2022-12-05T05:56:26;4.40;99.90
14527;DHT22;7350;51.208;4.238;2022-12-05T05:58:55;4.50;99.90
14527;DHT22;7350;51.208;4.238;2022-12-05T06:01:23;4.50;99.90
14527;DHT22;7350;51.208;4.238;2022-12-05T06:03:50;4.30;99.90
14527;DHT22;7350;51.208;4.238;2022-12-05T06:06:18;4.30;99.90
14527;DHT22;7350;51.208;4.238;2022-12-05T06:08:45;4.30;99.90
14527;DHT22;7350;51.208;4.238;2022-12-05T06:11:14;4.10;99.90
14527;DHT22;7350;51.208;4.238;2022-12-05T06:13:42;4.00;99.90
14527;DHT22;7350;51.208;4.238;2022-12-05T06:16:11;4.10;99.90
14527;DHT22;7350;51.208;4.238;2022-12-05T06:18:39;4.20;99.90
14527;DHT22;7350;51.208;4.238;2022-12-05T06:21:06;4.30;99.90
14527;DHT22;7350;51.208;4.238;2022-12-05T06:23:34;4.40;99.90
14527;DHT22;7350;51.208;4.238;2022-12-05T06:26:02;4.50;99.90
14527;DHT22;7350;51.208;4.238;2022-12-05T06:28:29;4.30;99.90
14527;DHT22;7350;51.208;4.238;2022-12-05T06:30:57;4.40;99.90
14527;DHT22;7350;51.208;4.238;2022-12-05T06:33:25;4.60;99.90
14527;DHT22;7350;51.208;4.238;2022-12-05T06:36:01;4.60;99.90
14527;DHT22;7350;51.208;4.238;2022-12-05T06:38:28;4.70;99.90
14527;DHT22;7350;51.208;4.238;2022-12-05T06:40:55;4.80;99.90
14527;DHT22;7350;51.208;4.238;2022-12-05T06:43:22;4.80;99.90
14527;DHT22;7350;51.208;4.238;2022-12-05T06:45:49;4.90;99.90
14527;DHT22;7350;51.208;4.238;2022-12-05T06:48:17;4.90;99.90
14527;DHT22;7350;51.208;4.238;2022-12-05T06:50:48;5.00;99.90
14527;DHT22;7350;51.208;4.238;2022-12-05T06:53:15;4.80;99.90
14527;DHT22;7350;51.208;4.238;2022-12-05T06:55:42;5.00;99.90
14527;DHT22;7350;51.208;4.238;2022-12-05T06:58:10;4.90;99.90
14527;DHT22;7350;51.208;4.238;2022-12-05T07:00:36;5.00;99.90
14527;DHT22;7350;51.208;4.238;2022-12-05T07:03:22;4.90;99.90
14527;DHT22;7350;51.208;4.238;2022-12-05T07:05:49;4.80;99.90
14527;DHT22;7350;51.208;4.238;2022-12-05T07:08:16;4.70;99.90
14527;DHT22;7350;51.208;4.238;2022-12-05T07:10:49;4.70;99.90
14527;DHT22;7350;51.208;4.238;2022-12-05T07:13:16;5.00;99.90
14527;DHT22;7350;51.208;4.238;2022-12-05T07:15:45;5.00;99.90
14527;DHT22;7350;51.208;4.238;2022-12-05T07:18:12;5.10;99.90
14527;DHT22;7350;51.208;4.238;2022-12-05T07:20:41;5.00;99.90
14527;DHT22;7350;51.208;4.238;2022-12-05T07:23:08;5.00;99.90
14527;DHT22;7350;51.208;4.238;2022-12-05T07:25:38;5.20;99.90
14527;DHT22;7350;51.208;4.238;2022-12-05T07:28:05;5.10;99.90
14527;DHT22;7350;51.208;4.238;2022-12-05T07:30:32;5.10;99.90
14527;DHT22;7350;51.208;4.238;2022-12-05T07:32:59;5.10;99.90
14527;DHT22;7350;51.208;4.238;2022-12-05T07:35:26;5.20;99.90
14527;DHT22;7350;51.208;4.238;2022-12-05T07:37:55;5.20;99.90
14527;DHT22;7350;51.208;4.238;2022-12-05T07:40:22;5.30;99.90
14527;DHT22;7350;51.208;4.238;2022-12-05T07:42:49;5.20;99.90
14527;DHT22;7350;51.208;4.238;2022-12-05T07:45:18;5.20;99.90
14527;DHT22;7350;51.208;4.238;2022-12-05T07:47:45;5.30;99.90
14527;DHT22;7350;51.208;4.238;2022-12-05T07:50:12;5.40;99.90
14527;DHT22;7350;51.208;4.238;2022-12-05T07:52:39;5.30;99.90
14527;DHT22;7350;51.208;4.238;2022-12-05T07:55:08;5.20;99.90
14527;DHT22;7350;51.208;4.238;2022-12-05T07:57:35;5.20;99.90
14527;DHT22;7350;51.208;4.238;2022-12-05T08:00:03;5.10;99.90
14527;DHT22;7350;51.208;4.238;2022-12-05T08:02:31;5.00;99.90
14527;DHT22;7350;51.208;4.238;2022-12-05T08:04:58;5.00;99.90
14527;DHT22;7350;51.208;4.238;2022-12-05T08:07:25;4.90;99.90
14527;DHT22;7350;51.208;4.238;2022-12-05T08:09:52;5.00;99.90
14527;DHT22;7350;51.208;4.238;2022-12-05T08:12:20;5.00;99.90
14527;DHT22;7350;51.208;4.238;2022-12-05T08:14:47;5.10;99.90
14527;DHT22;7350;51.208;4.238;2022-12-05T08:17:14;5.30;99.90
14527;DHT22;7350;51.208;4.238;2022-12-05T08:19:42;5.20;99.90
14527;DHT22;7350;51.208;4.238;2022-12-05T08:22:09;5.20;99.90
14527;DHT22;7350;51.208;4.238;2022-12-05T08:24:36;5.20;99.90
14527;DHT22;7350;51.208;4.238;2022-12-05T08:27:04;5.20;99.90
14527;DHT22;7350;51.208;4.238;2022-12-05T08:29:32;5.10;99.90
14527;DHT22;7350;51.208;4.238;2022-12-05T08:31:59;5.10;99.90
14527;DHT22;7350;51.208;4.238;2022-12-05T08:34:26;5.10;99.90
14527;DHT22;7350;51.208;4.238;2022-12-05T08:36:53;5.20;99.90
14527;DHT22;7350;51.208;4.238;2022-12-05T08:39:20;5.30;99.90
14527;DHT22;7350;51.208;4.238;2022-12-05T08:41:47;5.40;99.90
14527;DHT22;7350;51.208;4.238;2022-12-05T08:44:15;5.10;99.90
14527;DHT22;7350;51.208;4.238;2022-12-05T08:46:46;5.40;99.90
14527;DHT22;7350;51.208;4.238;2022-12-05T08:49:13;5.40;99.90
14527;DHT22;7350;51.208;4.238;2022-12-05T08:51:41;5.50;99.90
14527;DHT22;7350;51.208;4.238;2022-12-05T08:54:09;5.60;99.90
14527;DHT22;7350;51.208;4.238;2022-12-05T08:56:36;5.70;99.90
14527;DHT22;7350;51.208;4.238;2022-12-05T08:59:04;5.60;99.90
14527;DHT22;7350;51.208;4.238;2022-12-05T09:01:31;5.50;99.90
14527;DHT22;7350;51.208;4.238;2022-12-05T09:04:00;5.60;99.90
14527;DHT22;7350;51.208;4.238;2022-12-05T09:06:29;5.70;99.90
14527;DHT22;7350;51.208;4.238;2022-12-05T09:08:58;5.80;99.90
14527;DHT22;7350;51.208;4.238;2022-12-05T09:11:30;5.70;99.90
14527;DHT22;7350;51.208;4.238;2022-12-05T09:13:58;5.60;99.90
14527;DHT22;7350;51.208;4.238;2022-12-05T09:16:27;5.60;99.90
14527;DHT22;7350;51.208;4.238;2022-12-05T09:18:55;5.80;99.90
14527;DHT22;7350;51.208;4.238;2022-12-05T09:21:25;5.80;99.90
14527;DHT22;7350;51.208;4.238;2022-12-05T09:23:52;5.80;99.90
14527;DHT22;7350;51.208;4.238;2022-12-05T09:26:22;5.70;99.90
14527;DHT22;7350;51.208;4.238;2022-12-05T09:28:50;5.50;99.90
14527;DHT22;7350;51.208;4.238;2022-12-05T09:31:19;5.70;99.90
14527;DHT22;7350;51.208;4.238;2022-12-05T09:33:47;5.70;99.90
14527;DHT22;7350;51.208;4.238;2022-12-05T09:36:17;5.70;99.90
14527;DHT22;7350;51.208;4.238;2022-12-05T09:38:46;5.80;99.90
14527;DHT22;7350;51.208;4.238;2022-12-05T09:41:22;5.50;99.90
14527;DHT22;7350;51.208;4.238;2022-12-05T09:44:15;5.50;99.90
14527;DHT22;7350;51.208;4.238;2022-12-05T09:46:51;5.90;99.90
14527;DHT22;7350;51.208;4.238;2022-12-05T09:49:21;5.90;99.90
14527;DHT22;7350;51.208;4.238;2022-12-05T09:51:50;6.00;99.90
14527;DHT22;7350;51.208;4.238;2022-12-05T09:54:21;6.10;99.90
14527;DHT22;7350;51.208;4.238;2022-12-05T09:56:51;5.90;99.90
14527;DHT22;7350;51.208;4.238;2022-12-05T09:59:19;5.90;99.90
14527;DHT22;7350;51.208;4.238;2022-12-05T10:01:51;5.90;99.90
14527;DHT22;7350;51.208;4.238;2022-12-05T10:04:36;5.80;99.90
14527;DHT22;7350;51.208;4.238;2022-12-05T10:07:14;5.60;99.90
14527;DHT22;7350;51.208;4.238;2022-12-05T10:09:53;5.60;99.90
14527;DHT22;7350;51.208;4.238;2022-12-05T10:12:45;5.80;99.90
14527;DHT22;7350;51.208;4.238;2022-12-05T10:15:17;5.90;99.90
14527;DHT22;7350;51.208;4.238;2022-12-05T10:17:49;5.80;99.90
14527;DHT22;7350;51.208;4.238;2022-12-05T10:20:20;6.10;99.90
14527;DHT22;7350;51.208;4.238;2022-12-05T10:22:51;6.10;99.90
14527;DHT22;7350;51.208;4.238;2022-12-05T10:25:21;6.30;99.90
14527;DHT22;7350;51.208;4.238;2022-12-05T10:27:51;6.10;99.90
14527;DHT22;7350;51.208;4.238;2022-12-05T10:30:21;6.00;99.90
14527;DHT22;7350;51.208;4.238;2022-12-05T10:32:52;5.80;99.90
14527;DHT22;7350;51.208;4.238;2022-12-05T10:35:22;5.90;99.90
14527;DHT22;7350;51.208;4.238;2022-12-05T10:37:50;6.00;99.90
14527;DHT22;7350;51.208;4.238;2022-12-05T10:40:19;5.90;99.90
14527;DHT22;7350;51.208;4.238;2022-12-05T10:42:47;5.90;99.90
14527;DHT22;7350;51.208;4.238;2022-12-05T10:45:17;5.80;99.90
14527;DHT22;7350;51.208;4.238;2022-12-05T10:47:46;6.00;99.90
14527;DHT22;7350;51.208;4.238;2022-12-05T10:50:22;6.00;99.90
14527;DHT22;7350;51.208;4.238;2022-12-05T10:52:51;5.70;99.90
14527;DHT22;7350;51.208;4.238;2022-12-05T10:55:20;5.60;99.90
14527;DHT22;7350;51.208;4.238;2022-12-05T10:58:01;5.90;99.90
14527;DHT22;7350;51.208;4.238;2022-12-05T11:00:33;5.70;99.90
14527;DHT22;7350;51.208;4.238;2022-12-05T11:03:02;5.80;99.90
14527;DHT22;7350;51.208;4.238;2022-12-05T11:05:31;5.90;99.90
14527;DHT22;7350;51.208;4.238;2022-12-05T11:07:59;6.20;99.90
14527;DHT22;7350;51.208;4.238;2022-12-05T11:10:32;6.00;99.90
14527;DHT22;7350;51.208;4.238;2022-12-05T11:13:00;6.30;99.90
14527;DHT22;7350;51.208;4.238;2022-12-05T11:15:29;6.50;99.90
14527;DHT22;7350;51.208;4.238;2022-12-05T11:18:16;6.30;99.90
14527;DHT22;7350;51.208;4.238;2022-12-05T11:20:43;6.60;99.90
14527;DHT22;7350;51.208;4.238;2022-12-05T11:23:20;6.60;99.90
14527;DHT22;7350;51.208;4.238;2022-12-05T11:25:50;6.60;99.90
14527;DHT22;7350;51.208;4.238;2022-12-05T11:28:33;6.60;99.90
14527;DHT22;7350;51.208;4.238;2022-12-05T11:31:02;6.40;99.90
14527;DHT22;7350;51.208;4.238;2022-12-05T11:33:31;6.20;99.90
14527;DHT22;7350;51.208;4.238;2022-12-05T11:36:03;6.40;99.90
14527;DHT22;7350;51.208;4.238;2022-12-05T11:38:31;6.30;99.90
14527;DHT22;7350;51.208;4.238;2022-12-05T11:44:08;6.50;99.90
14527;DHT22;7350;51.208;4.238;2022-12-05T11:46:48;6.50;99.90
14527;DHT22;7350;51.208;4.238;2022-12-05T11:49:31;6.50;99.90
14527;DHT22;7350;51.208;4.238;2022-12-05T11:52:07;6.40;99.90
14527;DHT22;7350;51.208;4.238;2022-12-05T11:54:56;6.60;99.90
14527;DHT22;7350;51.208;4.238;2022-12-05T11:58:04;6.60;99.90
14527;DHT22;7350;51.208;4.238;2022-12-05T12:00:36;6.50;99.90
14527;DHT22;7350;51.208;4.238;2022-12-05T12:03:29;6.50;99.90
14527;DHT22;7350;51.208;4.238;2022-12-05T12:06:15;6.50;99.90
14527;DHT22;7350;51.208;4.238;2022-12-05T12:08:53;6.70;99.90
14527;DHT22;7350;51.208;4.238;2022-12-05T12:11:28;6.80;99.90
14527;DHT22;7350;51.208;4.238;2022-12-05T12:14:01;6.60;99.90
14527;DHT22;7350;51.208;4.238;2022-12-05T12:16:35;6.30;99.90
14527;DHT22;7350;51.208;4.238;2022-12-05T12:19:16;6.30;99.90
14527;DHT22;7350;51.208;4.238;2022-12-05T12:21:54;6.40;99.90
14527;DHT22;7350;51.208;4.238;2022-12-05T12:24:34;6.70;99.90
14527;DHT22;7350;51.208;4.238;2022-12-05T12:27:13;6.60;99.90
14527;DHT22;7350;51.208;4.238;2022-12-05T12:29:52;6.40;99.90
14527;DHT22;7350;51.208;4.238;2022-12-05T12:32:31;6.40;99.90
14527;DHT22;7350;51.208;4.238;2022-12-05T12:35:17;6.50;99.90
14527;DHT22;7350;51.208;4.238;2022-12-05T12:37:59;6.30;99.90
14527;DHT22;7350;51.208;4.238;2022-12-05T12:40:34;6.30;99.90
14527;DHT22;7350;51.208;4.238;2022-12-05T12:43:09;6.30;99.90
14527;DHT22;7350;51.208;4.238;2022-12-05T12:46:01;6.30;99.90
14527;DHT22;7350;51.208;4.238;2022-12-05T12:48:42;6.20;99.90
14527;DHT22;7350;51.208;4.238;2022-12-05T12:51:13;6.40;99.90
14527;DHT22;7350;51.208;4.238;2022-12-05T12:53:57;6.60;99.90
14527;DHT22;7350;51.208;4.238;2022-12-05T12:56:36;6.50;99.90
14527;DHT22;7350;51.208;4.238;2022-12-05T12:59:17;6.60;99.90
14527;DHT22;7350;51.208;4.238;2022-12-05T13:01:51;6.80;99.90
14527;DHT22;7350;51.208;4.238;2022-12-05T13:04:23;6.70;99.90
14527;DHT22;7350;51.208;4.238;2022-12-05T13:06:56;6.50;99.90
14527;DHT22;7350;51.208;4.238;2022-12-05T13:09:27;6.70;99.90
14527;DHT22;7350;51.208;4.238;2022-12-05T13:11:59;6.60;99.90
14527;DHT22;7350;51.208;4.238;2022-12-05T13:14:28;6.60;99.90
14527;DHT22;7350;51.208;4.238;2022-12-05T13:16:59;6.70;99.90
14527;DHT22;7350;51.208;4.238;2022-12-05T13:19:29;6.90;99.90
14527;DHT22;7350;51.208;4.238;2022-12-05T13:22:02;7.00;99.90
14527;DHT22;7350;51.208;4.238;2022-12-05T13:24:30;7.10;99.90
14527;DHT22;7350;51.208;4.238;2022-12-05T13:26:59;6.60;99.90
14527;DHT22;7350;51.208;4.238;2022-12-05T13:29:30;6.50;99.90
14527;DHT22;7350;51.208;4.238;2022-12-05T13:32:00;6.60;99.90
14527;DHT22;7350;51.208;4.238;2022-12-05T13:34:43;6.40;99.90
14527;DHT22;7350;51.208;4.238;2022-12-05T13:37:18;6.30;99.90
14527;DHT22;7350;51.208;4.238;2022-12-05T13:40:04;6.20;99.90
14527;DHT22;7350;51.208;4.238;2022-12-05T13:42:59;6.00;99.90
14527;DHT22;7350;51.208;4.238;2022-12-05T13:45:26;6.30;99.90
14527;DHT22;7350;51.208;4.238;2022-12-05T13:48:06;6.40;99.90
14527;DHT22;7350;51.208;4.238;2022-12-05T13:50:42;6.50;99.90
14527;DHT22;7350;51.208;4.238;2022-12-05T13:53:23;6.50;99.90
14527;DHT22;7350;51.208;4.238;2022-12-05T13:55:56;6.50;99.90
14527;DHT22;7350;51.208;4.238;2022-12-05T13:58:40;6.70;99.90
14527;DHT22;7350;51.208;4.238;2022-12-05T14:01:43;6.90;99.90
14527;DHT22;7350;51.208;4.238;2022-12-05T14:07:41;6.80;99.90
14527;DHT22;7350;51.208;4.238;2022-12-05T14:10:10;6.70;99.90
14527;DHT22;7350;51.208;4.238;2022-12-05T14:12:49;7.10;99.90
14527;DHT22;7350;51.208;4.238;2022-12-05T14:15:29;7.10;99.90
14527;DHT22;7350;51.208;4.238;2022-12-05T14:18:04;6.90;99.90
14527;DHT22;7350;51.208;4.238;2022-12-05T14:20:48;6.80;99.90
14527;DHT22;7350;51.208;4.238;2022-12-05T14:23:26;6.80;99.90
14527;DHT22;7350;51.208;4.238;2022-12-05T14:26:05;6.80;99.90
14527;DHT22;7350;51.208;4.238;2022-12-05T14:28:52;6.80;99.90
14527;DHT22;7350;51.208;4.238;2022-12-05T14:31:42;6.90;99.90
14527;DHT22;7350;51.208;4.238;2022-12-05T14:34:26;6.80;99.90
14527;DHT22;7350;51.208;4.238;2022-12-05T14:36:59;6.80;99.90
14527;DHT22;7350;51.208;4.238;2022-12-05T14:39:35;6.70;99.90
14527;DHT22;7350;51.208;4.238;2022-12-05T14:42:16;6.60;99.90
14527;DHT22;7350;51.208;4.238;2022-12-05T14:44:46;6.50;99.90
14527;DHT22;7350;51.208;4.238;2022-12-05T14:47:17;6.50;99.90
14527;DHT22;7350;51.208;4.238;2022-12-05T14:50:32;6.30;99.90
14527;DHT22;7350;51.208;4.238;2022-12-05T14:53:21;6.00;99.90
14527;DHT22;7350;51.208;4.238;2022-12-05T14:55:52;5.90;99.90
14527;DHT22;7350;51.208;4.238;2022-12-05T14:58:25;5.80;99.90
14527;DHT22;7350;51.208;4.238;2022-12-05T15:00:56;5.70;99.90
14527;DHT22;7350;51.208;4.238;2022-12-05T15:03:29;5.70;99.90
14527;DHT22;7350;51.208;4.238;2022-12-05T15:05:57;5.70;99.90
14527;DHT22;7350;51.208;4.238;2022-12-05T15:08:27;5.70;99.90
14527;DHT22;7350;51.208;4.238;2022-12-05T15:10:57;5.70;99.90
14527;DHT22;7350;51.208;4.238;2022-12-05T15:13:26;5.80;99.90
14527;DHT22;7350;51.208;4.238;2022-12-05T15:15:59;5.70;99.90
14527;DHT22;7350;51.208;4.238;2022-12-05T15:18:33;5.70;99.90
14527;DHT22;7350;51.208;4.238;2022-12-05T15:21:06;5.70;99.90
14527;DHT22;7350;51.208;4.238;2022-12-05T15:23:43;5.80;99.90
14527;DHT22;7350;51.208;4.238;2022-12-05T15:26:21;5.90;99.90
14527;DHT22;7350;51.208;4.238;2022-12-05T15:29:00;5.80;99.90
14527;DHT22;7350;51.208;4.238;2022-12-05T15:31:31;5.70;99.90
14527;DHT22;7350;51.208;4.238;2022-12-05T15:34:01;5.80;99.90
14527;DHT22;7350;51.208;4.238;2022-12-05T15:36:33;5.70;99.90
14527;DHT22;7350;51.208;4.238;2022-12-05T15:39:05;5.80;99.90
14527;DHT22;7350;51.208;4.238;2022-12-05T15:41:34;5.60;99.90
14527;DHT22;7350;51.208;4.238;2022-12-05T15:44:04;5.60;99.90
14527;DHT22;7350;51.208;4.238;2022-12-05T15:46:31;5.60;99.90
14527;DHT22;7350;51.208;4.238;2022-12-05T15:48:58;5.70;99.90
14527;DHT22;7350;51.208;4.238;2022-12-05T15:51:30;5.80;99.90
14527;DHT22;7350;51.208;4.238;2022-12-05T15:54:00;5.90;99.90
14527;DHT22;7350;51.208;4.238;2022-12-05T15:56:35;5.80;99.90
14527;DHT22;7350;51.208;4.238;2022-12-05T15:59:11;5.80;99.90
14527;DHT22;7350;51.208;4.238;2022-12-05T16:01:42;5.90;99.90
14527;DHT22;7350;51.208;4.238;2022-12-05T16:04:14;6.00;99.90
14527;DHT22;7350;51.208;4.238;2022-12-05T16:06:45;6.20;99.90
14527;DHT22;7350;51.208;4.238;2022-12-05T16:09:16;6.10;99.90
14527;DHT22;7350;51.208;4.238;2022-12-05T16:11:56;6.00;99.90
14527;DHT22;7350;51.208;4.238;2022-12-05T16:14:29;6.10;99.90
14527;DHT22;7350;51.208;4.238;2022-12-05T16:16:58;5.90;99.90
14527;DHT22;7350;51.208;4.238;2022-12-05T16:19:28;5.90;99.90
14527;DHT22;7350;51.208;4.238;2022-12-05T16:22:05;5.90;99.90
14527;DHT22;7350;51.208;4.238;2022-12-05T16:24:39;6.00;99.90
14527;DHT22;7350;51.208;4.238;2022-12-05T16:27:14;6.00;99.90
14527;DHT22;7350;51.208;4.238;2022-12-05T16:29:42;6.10;99.90
14527;DHT22;7350;51.208;4.238;2022-12-05T16:32:18;6.10;99.90
14527;DHT22;7350;51.208;4.238;2022-12-05T16:34:47;6.00;99.90
14527;DHT22;7350;51.208;4.238;2022-12-05T16:37:17;6.20;99.90
14527;DHT22;7350;51.208;4.238;2022-12-05T16:39:45;6.50;99.90
14527;DHT22;7350;51.208;4.238;2022-12-05T16:42:22;6.40;99.90